sensor_id;sensor_type;location;lat;lon;timestamp;pressure;altitude;pressure_sealevel;temperature;humidity
67803;BME280;54601;51.378;-1.342;2023-01-27T00:01:21;101727.14;;;16.71;29.04
67803;BME280;54601;51.378;-1.342;2023-01-27T00:03:46;101724.03;;;16.78;28.90
67803;BME280;54601;51.378;-1.342;2023-01-27T00:06:12;101726.88;;;16.93;28.92
67803;BME280;54601;51.378;-1.342;2023-01-27T00:08:37;101725.27;;;16.68;28.92
67803;BME280;54601;51.378;-1.342;2023-01-27T00:11:02;101723.31;;;17.01;29.01
67803;BME280;54601;51.378;-1.342;2023-01-27T00:13:27;101723.79;;;17.08;28.91
67803;BME280;54601;51.378;-1.342;2023-01-27T00:15:53;101723.10;;;16.57;28.93
67803;BME280;54601;51.378;-1.342;2023-01-27T00:18:18;101726.57;;;16.70;29.03
67803;BME280;54601;51.378;-1.342;2023-01-27T00:20:43;101723.63;;;16.49;28.94
67803;BME280;54601;51.378;-1.342;2023-01-27T00:23:14;101722.54;;;16.90;28.93
67803;BME280;54601;51.378;-1.342;2023-01-27T00:25:34;101723.59;;;16.64;28.92
67803;BME280;54601;51.378;-1.342;2023-01-27T00:27:59;101718.88;;;16.86;28.93
67803;BME280;54601;51.378;-1.342;2023-01-27T00:30:24;101723.35;;;16.81;28.93
67803;BME280;54601;51.378;-1.342;2023-01-27T00:32:50;101731.38;;;16.52;28.97
67803;BME280;54601;51.378;-1.342;2023-01-27T00:35:16;101729.64;;;16.48;28.97
67803;BME280;54601;51.378;-1.342;2023-01-27T00:37:40;101729.03;;;16.25;29.00
67803;BME280;54601;51.378;-1.342;2023-01-27T00:40:06;101725.91;;;16.49;28.91
67803;BME280;54601;51.378;-1.342;2023-01-27T00:42:31;101724.53;;;16.71;28.87
67803;BME280;54601;51.378;-1.342;2023-01-27T00:44:56;101729.18;;;16.53;28.82
67803;BME280;54601;51.378;-1.342;2023-01-27T00:47:22;101725.21;;;16.64;28.90
67803;BME280;54601;51.378;-1.342;2023-01-27T00:49:47;101724.32;;;16.16;28.89
67803;BME280;54601;51.378;-1.342;2023-01-27T00:52:12;101721.70;;;16.34;28.92
67803;BME280;54601;51.378;-1.342;2023-01-27T00:54:38;101720.46;;;16.60;28.84
67803;BME280;54601;51.378;-1.342;2023-01-27T00:57:03;101719.08;;;16.36;28.81
67803;BME280;54601;51.378;-1.342;2023-01-27T00:59:28;101712.28;;;16.59;28.80
67803;BME280;54601;51.378;-1.342;2023-01-27T01:01:54;101708.07;;;16.33;28.78
67803;BME280;54601;51.378;-1.342;2023-01-27T01:04:19;101707.52;;;16.30;28.79
67803;BME280;54601;51.378;-1.342;2023-01-27T01:06:44;101708.97;;;16.53;28.75
67803;BME280;54601;51.378;-1.342;2023-01-27T01:09:10;101712.13;;;16.55;28.69
67803;BME280;54601;51.378;-1.342;2023-01-27T01:11:35;101710.49;;;16.51;28.67
67803;BME280;54601;51.378;-1.342;2023-01-27T01:14:00;101696.73;;;16.47;28.71
67803;BME280;54601;51.378;-1.342;2023-01-27T01:16:26;101689.28;;;16.17;28.75
67803;BME280;54601;51.378;-1.342;2023-01-27T01:18:51;101691.27;;;16.46;28.63
67803;BME280;54601;51.378;-1.342;2023-01-27T01:21:16;101694.15;;;16.15;28.70
67803;BME280;54601;51.378;-1.342;2023-01-27T01:23:44;101692.67;;;16.44;28.61
67803;BME280;54601;51.378;-1.342;2023-01-27T01:26:08;101688.66;;;16.34;28.69
67803;BME280;54601;51.378;-1.342;2023-01-27T01:28:32;101687.22;;;16.22;28.55
67803;BME280;54601;51.378;-1.342;2023-01-27T01:31:03;101685.08;;;16.39;28.55
67803;BME280;54601;51.378;-1.342;2023-01-27T01:33:23;101680.30;;;16.38;28.52
67803;BME280;54601;51.378;-1.342;2023-01-27T01:35:48;101676.41;;;16.29;28.56
67803;BME280;54601;51.378;-1.342;2023-01-27T01:38:14;101675.00;;;16.27;28.57
67803;BME280;54601;51.378;-1.342;2023-01-27T01:40:40;101676.31;;;16.10;28.47
67803;BME280;54601;51.378;-1.342;2023-01-27T01:43:08;101674.73;;;16.24;28.54
67803;BME280;54601;51.378;-1.342;2023-01-27T01:45:41;101674.83;;;16.59;28.42
67803;BME280;54601;51.378;-1.342;2023-01-27T01:47:55;101682.08;;;16.25;28.48
67803;BME280;54601;51.378;-1.342;2023-01-27T01:50:21;101681.27;;;16.21;28.49
67803;BME280;54601;51.378;-1.342;2023-01-27T01:52:46;101674.45;;;16.27;28.40
67803;BME280;54601;51.378;-1.342;2023-01-27T01:55:11;101672.81;;;16.27;28.36
67803;BME280;54601;51.378;-1.342;2023-01-27T01:57:36;101669.40;;;16.23;28.41
67803;BME280;54601;51.378;-1.342;2023-01-27T02:00:06;101674.23;;;16.29;28.34
67803;BME280;54601;51.378;-1.342;2023-01-27T02:02:28;101676.59;;;16.29;28.31
67803;BME280;54601;51.378;-1.342;2023-01-27T02:04:54;101678.73;;;16.26;28.37
67803;BME280;54601;51.378;-1.342;2023-01-27T02:07:21;101675.02;;;15.94;28.45
67803;BME280;54601;51.378;-1.342;2023-01-27T02:09:43;101673.29;;;16.19;28.43
67803;BME280;54601;51.378;-1.342;2023-01-27T02:12:08;101677.63;;;16.25;28.38
67803;BME280;54601;51.378;-1.342;2023-01-27T02:14:34;101677.09;;;16.21;28.43
67803;BME280;54601;51.378;-1.342;2023-01-27T02:16:59;101671.93;;;16.22;28.40
67803;BME280;54601;51.378;-1.342;2023-01-27T02:19:31;101672.27;;;16.18;28.47
67803;BME280;54601;51.378;-1.342;2023-01-27T02:21:52;101673.00;;;16.24;28.41
67803;BME280;54601;51.378;-1.342;2023-01-27T02:24:15;101679.34;;;16.19;28.49
67803;BME280;54601;51.378;-1.342;2023-01-27T02:26:42;101680.03;;;16.20;28.48
67803;BME280;54601;51.378;-1.342;2023-01-27T02:29:08;101680.84;;;16.17;28.55
67803;BME280;54601;51.378;-1.342;2023-01-27T02:31:31;101675.52;;;16.24;28.46
67803;BME280;54601;51.378;-1.342;2023-01-27T02:34:00;101674.95;;;16.23;28.50
67803;BME280;54601;51.378;-1.342;2023-01-27T02:36:22;101677.04;;;16.25;28.49
67803;BME280;54601;51.378;-1.342;2023-01-27T02:38:49;101670.29;;;16.19;28.56
67803;BME280;54601;51.378;-1.342;2023-01-27T02:41:16;101669.53;;;16.01;28.51
67803;BME280;54601;51.378;-1.342;2023-01-27T02:43:38;101664.66;;;16.26;28.50
67803;BME280;54601;51.378;-1.342;2023-01-27T02:46:04;101661.60;;;16.29;28.46
67803;BME280;54601;51.378;-1.342;2023-01-27T02:48:29;101655.99;;;16.22;28.55
67803;BME280;54601;51.378;-1.342;2023-01-27T02:50:54;101651.87;;;16.26;28.50
67803;BME280;54601;51.378;-1.342;2023-01-27T02:53:20;101654.78;;;16.33;28.44
67803;BME280;54601;51.378;-1.342;2023-01-27T02:55:45;101651.37;;;16.53;28.51
67803;BME280;54601;51.378;-1.342;2023-01-27T02:58:10;101651.15;;;16.22;28.59
67803;BME280;54601;51.378;-1.342;2023-01-27T03:00:36;101654.89;;;16.46;28.61
67803;BME280;54601;51.378;-1.342;2023-01-27T03:03:01;101651.13;;;16.06;28.50
67803;BME280;54601;51.378;-1.342;2023-01-27T03:05:26;101647.60;;;16.14;28.66
67803;BME280;54601;51.378;-1.342;2023-01-27T03:07:52;101644.09;;;16.17;28.64
67803;BME280;54601;51.378;-1.342;2023-01-27T03:10:17;101642.38;;;15.91;28.68
67803;BME280;54601;51.378;-1.342;2023-01-27T03:12:43;101640.87;;;16.17;28.60
67803;BME280;54601;51.378;-1.342;2023-01-27T03:15:09;101642.75;;;16.14;28.68
67803;BME280;54601;51.378;-1.342;2023-01-27T03:17:34;101642.78;;;16.18;28.64
67803;BME280;54601;51.378;-1.342;2023-01-27T03:19:59;101640.03;;;16.18;28.64
67803;BME280;54601;51.378;-1.342;2023-01-27T03:22:24;101641.89;;;16.13;28.45
67803;BME280;54601;51.378;-1.342;2023-01-27T03:24:49;101639.63;;;16.26;28.54
67803;BME280;54601;51.378;-1.342;2023-01-27T03:27:15;101635.18;;;16.24;28.58
67803;BME280;54601;51.378;-1.342;2023-01-27T03:29:40;101640.79;;;16.25;28.57
67803;BME280;54601;51.378;-1.342;2023-01-27T03:32:05;101643.56;;;16.30;28.54
67803;BME280;54601;51.378;-1.342;2023-01-27T03:34:31;101639.79;;;16.08;28.51
67803;BME280;54601;51.378;-1.342;2023-01-27T03:36:56;101639.82;;;16.15;28.68
67803;BME280;54601;51.378;-1.342;2023-01-27T03:39:22;101638.60;;;16.28;28.55
67803;BME280;54601;51.378;-1.342;2023-01-27T03:41:47;101639.06;;;16.19;28.74
67803;BME280;54601;51.378;-1.342;2023-01-27T03:44:12;101639.16;;;16.29;28.62
67803;BME280;54601;51.378;-1.342;2023-01-27T03:46:38;101638.19;;;16.32;28.57
67803;BME280;54601;51.378;-1.342;2023-01-27T03:49:03;101637.13;;;16.63;28.29
67803;BME280;54601;51.378;-1.342;2023-01-27T03:51:28;101635.91;;;16.02;28.82
67803;BME280;54601;51.378;-1.342;2023-01-27T03:53:54;101634.31;;;16.40;28.46
67803;BME280;54601;51.378;-1.342;2023-01-27T03:56:20;101633.55;;;16.19;28.68
67803;BME280;54601;51.378;-1.342;2023-01-27T03:58:46;101631.25;;;16.54;28.33
67803;BME280;54601;51.378;-1.342;2023-01-27T04:01:15;101632.32;;;16.39;28.51
67803;BME280;54601;51.378;-1.342;2023-01-27T04:03:35;101629.42;;;16.15;28.74
67803;BME280;54601;51.378;-1.342;2023-01-27T04:06:02;101635.95;;;16.55;28.35
67803;BME280;54601;51.378;-1.342;2023-01-27T04:08:26;101640.38;;;16.70;28.19
67803;BME280;54601;51.378;-1.342;2023-01-27T04:10:51;101637.25;;;16.37;28.53
67803;BME280;54601;51.378;-1.342;2023-01-27T04:13:16;101637.32;;;16.52;28.42
67803;BME280;54601;51.378;-1.342;2023-01-27T04:15:42;101644.26;;;16.26;28.64
67803;BME280;54601;51.378;-1.342;2023-01-27T04:18:07;101647.37;;;16.39;28.58
67803;BME280;54601;51.378;-1.342;2023-01-27T04:20:32;101639.69;;;16.77;28.19
67803;BME280;54601;51.378;-1.342;2023-01-27T04:22:58;101632.50;;;16.63;28.34
67803;BME280;54601;51.378;-1.342;2023-01-27T04:25:23;101639.56;;;16.56;28.38
67803;BME280;54601;51.378;-1.342;2023-01-27T04:27:48;101641.92;;;16.43;28.51
67803;BME280;54601;51.378;-1.342;2023-01-27T04:30:14;101635.64;;;16.85;28.11
67803;BME280;54601;51.378;-1.342;2023-01-27T04:32:39;101632.13;;;16.68;28.28
67803;BME280;54601;51.378;-1.342;2023-01-27T04:35:05;101634.30;;;16.67;28.28
67803;BME280;54601;51.378;-1.342;2023-01-27T04:37:30;101634.29;;;16.76;28.23
67803;BME280;54601;51.378;-1.342;2023-01-27T04:39:55;101631.70;;;16.77;28.22
67803;BME280;54601;51.378;-1.342;2023-01-27T04:42:20;101635.01;;;16.65;28.31
67803;BME280;54601;51.378;-1.342;2023-01-27T04:44:46;101636.45;;;16.77;28.20
67803;BME280;54601;51.378;-1.342;2023-01-27T04:47:11;101635.94;;;16.92;28.09
67803;BME280;54601;51.378;-1.342;2023-01-27T04:49:36;101629.42;;;16.86;28.12
67803;BME280;54601;51.378;-1.342;2023-01-27T04:52:02;101632.77;;;16.96;28.03
67803;BME280;54601;51.378;-1.342;2023-01-27T04:54:27;101637.64;;;16.98;27.99
67803;BME280;54601;51.378;-1.342;2023-01-27T04:56:56;101638.77;;;16.80;28.19
67803;BME280;54601;51.378;-1.342;2023-01-27T04:59:18;101641.27;;;17.06;27.95
67803;BME280;54601;51.378;-1.342;2023-01-27T05:01:43;101639.12;;;16.88;27.89
67803;BME280;54601;51.378;-1.342;2023-01-27T05:04:08;101639.79;;;16.88;28.10
67803;BME280;54601;51.378;-1.342;2023-01-27T05:06:34;101636.22;;;16.84;28.16
67803;BME280;54601;51.378;-1.342;2023-01-27T05:08:59;101640.19;;;16.97;28.02
67803;BME280;54601;51.378;-1.342;2023-01-27T05:11:25;101644.13;;;16.68;28.14
67803;BME280;54601;51.378;-1.342;2023-01-27T05:13:50;101642.83;;;16.88;28.12
67803;BME280;54601;51.378;-1.342;2023-01-27T05:16:17;101645.63;;;16.85;28.12
67803;BME280;54601;51.378;-1.342;2023-01-27T05:18:42;101642.89;;;16.78;28.02
67803;BME280;54601;51.378;-1.342;2023-01-27T05:21:07;101638.22;;;16.55;28.17
67803;BME280;54601;51.378;-1.342;2023-01-27T05:23:31;101637.45;;;17.06;27.95
67803;BME280;54601;51.378;-1.342;2023-01-27T05:25:56;101636.00;;;16.96;28.02
67803;BME280;54601;51.378;-1.342;2023-01-27T05:28:21;101633.51;;;17.18;27.78
67803;BME280;54601;51.378;-1.342;2023-01-27T05:30:47;101628.24;;;16.99;27.98
67803;BME280;54601;51.378;-1.342;2023-01-27T05:33:12;101626.06;;;17.24;27.71
67803;BME280;54601;51.378;-1.342;2023-01-27T05:35:37;101621.91;;;16.93;28.03
67803;BME280;54601;51.378;-1.342;2023-01-27T05:38:02;101619.83;;;16.66;28.07
67803;BME280;54601;51.378;-1.342;2023-01-27T05:40:28;101620.67;;;17.11;27.85
67803;BME280;54601;51.378;-1.342;2023-01-27T05:42:53;101625.82;;;16.94;27.98
67803;BME280;54601;51.378;-1.342;2023-01-27T05:45:18;101631.99;;;16.94;27.99
67803;BME280;54601;51.378;-1.342;2023-01-27T05:47:47;101633.98;;;16.86;28.07
67803;BME280;54601;51.378;-1.342;2023-01-27T05:50:09;101630.53;;;16.55;28.17
67803;BME280;54601;51.378;-1.342;2023-01-27T05:52:34;101628.50;;;16.41;28.31
67803;BME280;54601;51.378;-1.342;2023-01-27T05:54:59;101627.75;;;17.15;27.82
67803;BME280;54601;51.378;-1.342;2023-01-27T05:57:25;101631.51;;;16.78;28.14
67803;BME280;54601;51.378;-1.342;2023-01-27T05:59:50;101637.26;;;16.63;28.29
67803;BME280;54601;51.378;-1.342;2023-01-27T06:02:15;101635.16;;;16.46;28.27
67803;BME280;54601;51.378;-1.342;2023-01-27T06:04:40;101635.65;;;16.62;28.31
67803;BME280;54601;51.378;-1.342;2023-01-27T06:07:05;101638.61;;;16.74;28.22
67803;BME280;54601;51.378;-1.342;2023-01-27T06:09:31;101643.48;;;16.64;28.28
67803;BME280;54601;51.378;-1.342;2023-01-27T06:11:56;101646.40;;;16.56;28.33
67803;BME280;54601;51.378;-1.342;2023-01-27T06:14:21;101645.22;;;16.46;28.28
67803;BME280;54601;51.378;-1.342;2023-01-27T06:16:46;101645.01;;;16.63;28.34
67803;BME280;54601;51.378;-1.342;2023-01-27T06:19:12;101639.72;;;16.97;27.98
67803;BME280;54601;51.378;-1.342;2023-01-27T06:21:37;101639.70;;;16.78;28.17
67803;BME280;54601;51.378;-1.342;2023-01-27T06:24:02;101638.97;;;16.90;28.04
67803;BME280;54601;51.378;-1.342;2023-01-27T06:26:27;101641.33;;;16.69;28.23
67803;BME280;54601;51.378;-1.342;2023-01-27T06:28:55;101639.90;;;16.40;28.53
67803;BME280;54601;51.378;-1.342;2023-01-27T06:31:19;101638.47;;;16.45;28.49
67803;BME280;54601;51.378;-1.342;2023-01-27T06:33:43;101636.01;;;16.71;28.24
67803;BME280;54601;51.378;-1.342;2023-01-27T06:36:10;101637.48;;;16.98;27.94
67803;BME280;54601;51.378;-1.342;2023-01-27T06:38:34;101640.78;;;16.53;28.18
67803;BME280;54601;51.378;-1.342;2023-01-27T06:40:59;101638.47;;;16.34;28.41
67803;BME280;54601;51.378;-1.342;2023-01-27T06:43:25;101645.07;;;16.39;28.58
67803;BME280;54601;51.378;-1.342;2023-01-27T06:45:50;101646.76;;;16.50;28.55
67803;BME280;54601;51.378;-1.342;2023-01-27T06:48:14;101648.81;;;16.69;28.34
67803;BME280;54601;51.378;-1.342;2023-01-27T06:50:40;101648.86;;;16.55;28.31
67803;BME280;54601;51.378;-1.342;2023-01-27T06:53:06;101636.80;;;16.86;28.36
67803;BME280;54601;51.378;-1.342;2023-01-27T06:55:30;101629.02;;;16.79;28.41
67803;BME280;54601;51.378;-1.342;2023-01-27T06:57:56;101629.98;;;16.74;28.51
67803;BME280;54601;51.378;-1.342;2023-01-27T07:00:21;101637.70;;;16.49;28.58
67803;BME280;54601;51.378;-1.342;2023-01-27T07:02:46;101638.56;;;16.60;28.75
67803;BME280;54601;51.378;-1.342;2023-01-27T07:05:11;101638.01;;;16.52;28.68
67803;BME280;54601;51.378;-1.342;2023-01-27T07:07:37;101639.34;;;16.44;28.81
67803;BME280;54601;51.378;-1.342;2023-01-27T07:10:02;101637.95;;;16.62;28.90
67803;BME280;54601;51.378;-1.342;2023-01-27T07:12:27;101637.59;;;16.64;28.95
67803;BME280;54601;51.378;-1.342;2023-01-27T07:14:52;101639.77;;;16.65;28.95
67803;BME280;54601;51.378;-1.342;2023-01-27T07:17:18;101647.56;;;16.36;29.13
67803;BME280;54601;51.378;-1.342;2023-01-27T07:19:43;101645.94;;;16.48;29.04
67803;BME280;54601;51.378;-1.342;2023-01-27T07:22:08;101645.16;;;16.54;28.97
67803;BME280;54601;51.378;-1.342;2023-01-27T07:24:34;101643.43;;;16.39;28.98
67803;BME280;54601;51.378;-1.342;2023-01-27T07:26:59;101645.33;;;16.83;28.92
67803;BME280;54601;51.378;-1.342;2023-01-27T07:29:25;101648.77;;;16.78;28.79
67803;BME280;54601;51.378;-1.342;2023-01-27T07:31:50;101652.40;;;16.68;28.91
67803;BME280;54601;51.378;-1.342;2023-01-27T07:34:15;101656.19;;;16.43;29.02
67803;BME280;54601;51.378;-1.342;2023-01-27T07:36:40;101656.36;;;16.68;29.07
67803;BME280;54601;51.378;-1.342;2023-01-27T07:39:05;101657.04;;;16.98;28.97
67803;BME280;54601;51.378;-1.342;2023-01-27T07:41:31;101659.15;;;16.97;29.04
67803;BME280;54601;51.378;-1.342;2023-01-27T07:43:56;101663.28;;;16.50;29.07
67803;BME280;54601;51.378;-1.342;2023-01-27T07:46:22;101660.05;;;16.64;28.98
67803;BME280;54601;51.378;-1.342;2023-01-27T07:48:47;101659.54;;;16.69;29.16
67803;BME280;54601;51.378;-1.342;2023-01-27T07:51:12;101658.88;;;16.45;29.26
67803;BME280;54601;51.378;-1.342;2023-01-27T07:53:37;101657.80;;;16.67;29.20
67803;BME280;54601;51.378;-1.342;2023-01-27T07:56:03;101660.33;;;16.62;29.35
67803;BME280;54601;51.378;-1.342;2023-01-27T07:58:28;101661.88;;;16.86;29.36
67803;BME280;54601;51.378;-1.342;2023-01-27T08:00:53;101663.31;;;16.51;29.24
67803;BME280;54601;51.378;-1.342;2023-01-27T08:03:24;101662.27;;;16.87;29.36
67803;BME280;54601;51.378;-1.342;2023-01-27T08:05:44;101660.99;;;16.35;29.49
67803;BME280;54601;51.378;-1.342;2023-01-27T08:08:09;101666.60;;;16.69;29.42
67803;BME280;54601;51.378;-1.342;2023-01-27T08:10:34;101667.30;;;16.68;29.49
67803;BME280;54601;51.378;-1.342;2023-01-27T08:13:00;101665.72;;;16.92;29.43
67803;BME280;54601;51.378;-1.342;2023-01-27T08:15:25;101667.30;;;16.48;29.50
67803;BME280;54601;51.378;-1.342;2023-01-27T08:17:54;101664.57;;;16.72;29.42
67803;BME280;54601;51.378;-1.342;2023-01-27T08:20:16;101663.18;;;16.56;29.38
67803;BME280;54601;51.378;-1.342;2023-01-27T08:22:41;101668.52;;;16.80;29.36
67803;BME280;54601;51.378;-1.342;2023-01-27T08:25:07;101671.12;;;16.66;29.68
67803;BME280;54601;51.378;-1.342;2023-01-27T08:27:32;101674.98;;;16.55;29.61
67803;BME280;54601;51.378;-1.342;2023-01-27T08:29:57;101673.31;;;16.85;29.58
67803;BME280;54601;51.378;-1.342;2023-01-27T08:32:22;101676.76;;;16.63;29.54
67803;BME280;54601;51.378;-1.342;2023-01-27T08:34:47;101681.41;;;16.63;29.57
67803;BME280;54601;51.378;-1.342;2023-01-27T08:37:13;101685.25;;;16.75;29.45
67803;BME280;54601;51.378;-1.342;2023-01-27T08:39:38;101689.79;;;16.70;29.57
67803;BME280;54601;51.378;-1.342;2023-01-27T08:42:03;101685.53;;;16.98;29.43
67803;BME280;54601;51.378;-1.342;2023-01-27T08:44:29;101692.73;;;16.81;29.40
67803;BME280;54601;51.378;-1.342;2023-01-27T08:46:54;101692.94;;;16.71;29.53
67803;BME280;54601;51.378;-1.342;2023-01-27T08:49:19;101695.06;;;16.79;29.44
67803;BME280;54601;51.378;-1.342;2023-01-27T08:51:45;101685.87;;;16.96;29.49
67803;BME280;54601;51.378;-1.342;2023-01-27T08:54:10;101689.99;;;17.16;29.45
67803;BME280;54601;51.378;-1.342;2023-01-27T08:56:35;101694.42;;;16.73;29.45
67803;BME280;54601;51.378;-1.342;2023-01-27T08:59:00;101703.19;;;16.78;29.35
67803;BME280;54601;51.378;-1.342;2023-01-27T09:01:26;101700.58;;;17.09;29.18
67803;BME280;54601;51.378;-1.342;2023-01-27T09:03:51;101698.47;;;16.92;29.11
67803;BME280;54601;51.378;-1.342;2023-01-27T09:06:17;101700.55;;;17.14;29.04
67803;BME280;54601;51.378;-1.342;2023-01-27T09:08:42;101700.68;;;17.18;28.99
67803;BME280;54601;51.378;-1.342;2023-01-27T09:11:09;101699.81;;;16.94;29.05
67803;BME280;54601;51.378;-1.342;2023-01-27T09:13:32;101706.03;;;17.01;29.00
67803;BME280;54601;51.378;-1.342;2023-01-27T09:15:57;101707.24;;;16.97;29.00
67803;BME280;54601;51.378;-1.342;2023-01-27T09:18:23;101707.58;;;16.98;28.99
67803;BME280;54601;51.378;-1.342;2023-01-27T09:20:48;101708.40;;;17.00;28.91
67803;BME280;54601;51.378;-1.342;2023-01-27T09:23:13;101707.25;;;16.99;28.89
67803;BME280;54601;51.378;-1.342;2023-01-27T09:25:38;101710.29;;;17.04;28.86
67803;BME280;54601;51.378;-1.342;2023-01-27T09:28:04;101713.74;;;17.18;28.88
67803;BME280;54601;51.378;-1.342;2023-01-27T09:30:30;101716.59;;;17.25;28.80
67803;BME280;54601;51.378;-1.342;2023-01-27T09:32:57;101715.01;;;16.98;28.85
67803;BME280;54601;51.378;-1.342;2023-01-27T09:35:20;101718.42;;;16.95;28.86
67803;BME280;54601;51.378;-1.342;2023-01-27T09:37:48;101723.07;;;17.16;28.88
67803;BME280;54601;51.378;-1.342;2023-01-27T09:40:23;101728.84;;;17.12;28.92
67803;BME280;54601;51.378;-1.342;2023-01-27T09:42:45;101731.56;;;16.97;28.81
67803;BME280;54601;51.378;-1.342;2023-01-27T09:45:12;101728.27;;;16.98;28.77
67803;BME280;54601;51.378;-1.342;2023-01-27T09:47:36;101726.42;;;16.97;28.71
67803;BME280;54601;51.378;-1.342;2023-01-27T09:50:04;101726.84;;;17.29;28.53
67803;BME280;54601;51.378;-1.342;2023-01-27T09:52:30;101725.42;;;17.08;28.57
67803;BME280;54601;51.378;-1.342;2023-01-27T09:54:52;101721.13;;;17.13;28.43
67803;BME280;54601;51.378;-1.342;2023-01-27T09:57:13;101721.75;;;16.93;28.65
67803;BME280;54601;51.378;-1.342;2023-01-27T09:59:43;101719.74;;;16.99;28.62
67803;BME280;54601;51.378;-1.342;2023-01-27T10:02:08;101718.26;;;16.97;28.64
67803;BME280;54601;51.378;-1.342;2023-01-27T10:04:35;101722.86;;;17.37;28.51
67803;BME280;54601;51.378;-1.342;2023-01-27T10:07:00;101724.21;;;17.38;28.88
67803;BME280;54601;51.378;-1.342;2023-01-27T10:09:29;101725.64;;;17.06;28.75
67803;BME280;54601;51.378;-1.342;2023-01-27T10:11:44;101726.00;;;16.73;29.09
67803;BME280;54601;51.378;-1.342;2023-01-27T10:14:15;101728.58;;;16.91;29.13
67803;BME280;54601;51.378;-1.342;2023-01-27T10:16:41;101733.66;;;16.70;29.14
67803;BME280;54601;51.378;-1.342;2023-01-27T10:19:07;101735.97;;;16.82;29.16
67803;BME280;54601;51.378;-1.342;2023-01-27T10:21:26;101734.91;;;16.74;29.14
67803;BME280;54601;51.378;-1.342;2023-01-27T10:23:52;101734.72;;;16.70;29.08
67803;BME280;54601;51.378;-1.342;2023-01-27T10:26:20;101737.20;;;16.86;29.14
67803;BME280;54601;51.378;-1.342;2023-01-27T10:28:37;101737.98;;;16.61;29.32
67803;BME280;54601;51.378;-1.342;2023-01-27T10:31:07;101735.90;;;16.66;29.25
67803;BME280;54601;51.378;-1.342;2023-01-27T10:33:38;101737.23;;;16.61;29.32
67803;BME280;54601;51.378;-1.342;2023-01-27T10:35:56;101737.77;;;16.69;28.97
67803;BME280;54601;51.378;-1.342;2023-01-27T10:38:28;101731.11;;;16.57;29.14
67803;BME280;54601;51.378;-1.342;2023-01-27T10:40:49;101730.68;;;16.74;29.17
67803;BME280;54601;51.378;-1.342;2023-01-27T10:43:13;101726.49;;;16.92;29.29
67803;BME280;54601;51.378;-1.342;2023-01-27T10:45:36;101729.23;;;16.50;29.24
67803;BME280;54601;51.378;-1.342;2023-01-27T10:48:10;101726.06;;;16.90;29.22
67803;BME280;54601;51.378;-1.342;2023-01-27T10:50:28;101724.62;;;16.57;29.13
67803;BME280;54601;51.378;-1.342;2023-01-27T10:52:55;101726.34;;;16.94;29.18
67803;BME280;54601;51.378;-1.342;2023-01-27T10:55:19;101730.07;;;16.82;29.06
67803;BME280;54601;51.378;-1.342;2023-01-27T10:57:44;101725.04;;;16.58;29.09
67803;BME280;54601;51.378;-1.342;2023-01-27T11:00:12;101716.32;;;16.50;29.13
67803;BME280;54601;51.378;-1.342;2023-01-27T11:02:35;101718.00;;;17.00;29.08
67803;BME280;54601;51.378;-1.342;2023-01-27T11:04:58;101717.18;;;16.65;29.21
67803;BME280;54601;51.378;-1.342;2023-01-27T11:07:22;101714.48;;;16.44;29.17
67803;BME280;54601;51.378;-1.342;2023-01-27T11:09:51;101713.71;;;16.81;28.99
67803;BME280;54601;51.378;-1.342;2023-01-27T11:12:13;101707.72;;;16.76;29.28
67803;BME280;54601;51.378;-1.342;2023-01-27T11:14:43;101707.96;;;16.79;29.26
67803;BME280;54601;51.378;-1.342;2023-01-27T11:17:11;101709.67;;;17.09;28.92
67803;BME280;54601;51.378;-1.342;2023-01-27T11:19:35;101707.09;;;16.60;29.19
67803;BME280;54601;51.378;-1.342;2023-01-27T11:21:54;101705.59;;;16.82;29.14
67803;BME280;54601;51.378;-1.342;2023-01-27T11:24:25;101707.55;;;16.63;29.15
67803;BME280;54601;51.378;-1.342;2023-01-27T11:26:50;101709.34;;;16.86;29.15
67803;BME280;54601;51.378;-1.342;2023-01-27T11:29:18;101708.77;;;16.81;29.21
67803;BME280;54601;51.378;-1.342;2023-01-27T11:31:39;101710.31;;;16.45;29.34
67803;BME280;54601;51.378;-1.342;2023-01-27T11:34:05;101714.20;;;16.24;29.31
67803;BME280;54601;51.378;-1.342;2023-01-27T11:36:25;101707.91;;;16.32;29.46
67803;BME280;54601;51.378;-1.342;2023-01-27T11:38:51;101701.57;;;16.57;29.42
67803;BME280;54601;51.378;-1.342;2023-01-27T11:41:16;101705.34;;;16.40;29.36
67803;BME280;54601;51.378;-1.342;2023-01-27T11:43:41;101700.05;;;16.66;29.30
67803;BME280;54601;51.378;-1.342;2023-01-27T11:46:14;101702.41;;;16.40;29.32
67803;BME280;54601;51.378;-1.342;2023-01-27T11:48:36;101702.50;;;16.62;29.33
67803;BME280;54601;51.378;-1.342;2023-01-27T11:50:57;101701.05;;;16.23;29.20
67803;BME280;54601;51.378;-1.342;2023-01-27T11:53:28;101695.96;;;16.72;29.14
67803;BME280;54601;51.378;-1.342;2023-01-27T11:55:50;101693.78;;;16.48;29.15
67803;BME280;54601;51.378;-1.342;2023-01-27T11:58:21;101690.59;;;16.36;29.29
67803;BME280;54601;51.378;-1.342;2023-01-27T12:00:43;101683.45;;;16.64;29.18
67803;BME280;54601;51.378;-1.342;2023-01-27T12:03:10;101679.56;;;16.46;29.13
67803;BME280;54601;51.378;-1.342;2023-01-27T12:05:33;101682.30;;;16.38;29.21
67803;BME280;54601;51.378;-1.342;2023-01-27T12:07:57;101677.34;;;16.29;29.02
67803;BME280;54601;51.378;-1.342;2023-01-27T12:10:23;101672.08;;;16.39;29.15
67803;BME280;54601;51.378;-1.342;2023-01-27T12:12:45;101672.05;;;16.56;29.18
67803;BME280;54601;51.378;-1.342;2023-01-27T12:15:14;101674.94;;;16.34;29.16
67803;BME280;54601;51.378;-1.342;2023-01-27T12:17:39;101672.41;;;16.35;29.12
67803;BME280;54601;51.378;-1.342;2023-01-27T12:20:05;101674.85;;;16.35;29.11
67803;BME280;54601;51.378;-1.342;2023-01-27T12:22:31;101675.94;;;16.34;29.13
67803;BME280;54601;51.378;-1.342;2023-01-27T12:24:56;101676.33;;;16.36;29.06
67803;BME280;54601;51.378;-1.342;2023-01-27T12:27:21;101676.69;;;16.06;29.10
67803;BME280;54601;51.378;-1.342;2023-01-27T12:29:47;101676.59;;;16.55;29.04